createdAt,value
2019-05-12T00:00:28.867Z,928.59
2019-05-12T00:01:28.799Z,928.56
2019-05-12T00:02:28.762Z,928.56
2019-05-12T00:03:28.405Z,928.51
2019-05-12T00:04:28.378Z,928.52
2019-05-12T00:05:28.355Z,928.56
2019-05-12T00:06:28.617Z,928.58
2019-05-12T00:07:28.655Z,928.57
2019-05-12T00:08:28.292Z,928.60
2019-05-12T00:09:28.498Z,928.63
2019-05-12T00:10:28.473Z,928.60
2019-05-12T00:11:28.734Z,928.57
2019-05-12T00:12:28.213Z,928.56
2019-05-12T00:13:28.183Z,928.50
2019-05-12T00:14:28.361Z,928.55
2019-05-12T00:15:28.279Z,928.55
2019-05-12T00:16:28.435Z,928.53
2019-05-12T00:17:28.495Z,928.47
2019-05-12T00:18:28.564Z,928.51
2019-05-12T00:19:28.636Z,928.46
2019-05-12T00:20:28.550Z,928.42
2019-05-12T00:21:28.403Z,928.42
2019-05-12T00:22:28.689Z,928.45
2019-05-12T00:23:31.101Z,928.40
2019-05-12T00:24:28.176Z,928.35
2019-05-12T00:25:28.435Z,928.36
2019-05-12T00:26:28.361Z,928.38
2019-05-12T00:27:28.473Z,928.43
2019-05-12T00:28:28.376Z,928.43
2019-05-12T00:29:28.681Z,928.43
2019-05-12T00:30:27.819Z,928.45
2019-05-12T00:31:28.156Z,928.48
2019-05-12T00:32:28.260Z,928.45
2019-05-12T00:33:28.222Z,928.46
2019-05-12T00:34:28.925Z,928.41
2019-05-12T00:35:28.463Z,928.48
2019-05-12T00:36:29.323Z,928.47
2019-05-12T00:37:28.855Z,928.51
2019-05-12T00:38:27.900Z,928.48
2019-05-12T00:39:27.958Z,928.51
2019-05-12T00:40:28.111Z,928.50
2019-05-12T00:41:28.376Z,928.48
2019-05-12T00:42:28.748Z,928.45
2019-05-12T00:43:28.181Z,928.47
2019-05-12T00:44:28.446Z,928.49
2019-05-12T00:45:29.153Z,928.46
2019-05-12T00:46:27.935Z,928.44
2019-05-12T00:47:28.021Z,928.46
2019-05-12T00:48:28.407Z,928.48
2019-05-12T00:49:28.996Z,928.49
2019-05-12T00:50:28.868Z,928.52
2019-05-12T00:51:28.838Z,928.55
2019-05-12T00:52:28.154Z,928.64
2019-05-12T00:53:37.143Z,928.62
2019-05-12T00:54:28.523Z,928.74
2019-05-12T00:55:28.936Z,928.76
2019-05-12T00:56:28.478Z,928.76
2019-05-12T00:57:28.672Z,928.79
2019-05-12T00:58:27.788Z,928.78
2019-05-12T00:59:27.928Z,928.71
2019-05-12T01:00:29.310Z,928.68
2019-05-12T01:01:28.577Z,928.69
2019-05-12T01:02:28.632Z,928.60
2019-05-12T01:03:27.906Z,928.59
2019-05-12T01:04:29.202Z,928.52
2019-05-12T01:05:29.154Z,928.49
2019-05-12T01:06:28.295Z,928.42
2019-05-12T01:07:27.788Z,928.37
2019-05-12T01:08:28.085Z,928.41
2019-05-12T01:09:28.164Z,928.49
2019-05-12T01:10:28.530Z,928.55
2019-05-12T01:11:28.574Z,928.55
2019-05-12T01:12:28.586Z,928.58
2019-05-12T01:13:27.925Z,928.58
2019-05-12T01:14:27.854Z,928.56
2019-05-12T01:15:28.755Z,928.58
2019-05-12T01:16:28.900Z,928.65
2019-05-12T01:17:28.209Z,928.67
2019-05-12T01:18:28.071Z,928.68
2019-05-12T01:19:28.870Z,928.74
2019-05-12T01:20:28.388Z,928.72
2019-05-12T01:21:28.749Z,928.66
2019-05-12T01:22:27.776Z,928.60
2019-05-12T01:23:28.058Z,928.54
2019-05-12T01:24:28.183Z,928.54
2019-05-12T01:25:28.745Z,928.56
2019-05-12T01:26:28.428Z,928.57
2019-05-12T01:27:28.636Z,928.60
2019-05-12T01:28:27.867Z,928.61
2019-05-12T01:29:28.159Z,928.60
2019-05-12T01:30:28.459Z,928.58
2019-05-12T01:31:28.486Z,928.57
2019-05-12T01:32:28.690Z,928.58
2019-05-12T01:33:27.712Z,928.56
2019-05-12T01:34:27.795Z,928.58
2019-05-12T01:35:28.063Z,928.63
2019-05-12T01:36:28.694Z,928.67
2019-05-12T01:37:28.066Z,928.71
2019-05-12T01:38:28.551Z,928.81
2019-05-12T01:39:27.750Z,928.81
2019-05-12T01:40:28.713Z,928.83
2019-05-12T01:41:28.510Z,928.81
2019-05-12T01:42:28.579Z,928.82
2019-05-12T01:43:27.748Z,928.79
2019-05-12T01:44:28.623Z,928.79
2019-05-12T01:45:28.471Z,928.74
2019-05-12T01:46:28.268Z,928.78
2019-05-12T01:47:28.912Z,928.71
2019-05-12T01:48:28.540Z,928.74
2019-05-12T01:49:26.162Z,928.71
2019-05-12T01:50:28.267Z,928.69
2019-05-12T01:51:28.305Z,928.66
2019-05-12T01:52:28.414Z,928.64
2019-05-12T01:53:28.518Z,928.68
2019-05-12T01:54:27.785Z,928.62
2019-05-12T01:55:28.121Z,928.66
2019-05-12T01:56:26.014Z,928.70
2019-05-12T01:57:25.991Z,928.65
2019-05-12T01:58:27.828Z,928.66
2019-05-12T01:59:25.954Z,928.66
2019-05-12T02:00:28.313Z,928.63
2019-05-12T02:01:28.095Z,928.62
2019-05-12T02:02:28.398Z,928.68
2019-05-12T02:03:28.211Z,928.70
2019-05-12T02:04:25.851Z,928.75
2019-05-12T02:05:28.007Z,928.74
2019-05-12T02:06:27.848Z,928.81
2019-05-12T02:07:27.927Z,928.76
2019-05-12T02:08:27.833Z,928.76
2019-05-12T02:09:27.913Z,928.79
2019-05-12T02:10:25.723Z,928.70
2019-05-12T02:11:25.702Z,928.69
2019-05-12T02:12:25.681Z,928.68
2019-05-12T02:13:27.684Z,928.64
2019-05-12T02:14:27.578Z,928.66
2019-05-12T02:15:27.688Z,928.67
2019-05-12T02:16:28.025Z,928.67
2019-05-12T02:17:25.575Z,928.63
2019-05-12T02:18:25.557Z,928.65
2019-05-12T02:19:25.532Z,928.70
2019-05-12T02:20:25.513Z,928.68
2019-05-12T02:21:27.788Z,928.67
2019-05-12T02:22:27.428Z,928.71
2019-05-12T02:23:25.451Z,928.73
2019-05-12T02:24:29.781Z,928.74
2019-05-12T02:25:25.407Z,928.79
2019-05-12T02:26:25.389Z,928.77
2019-05-12T02:27:25.365Z,928.75
2019-05-12T02:28:25.352Z,928.78
2019-05-12T02:29:25.320Z,928.81
2019-05-12T02:30:25.299Z,928.78
2019-05-12T02:31:25.287Z,928.82
2019-05-12T02:32:35.515Z,928.86
2019-05-12T02:33:25.236Z,928.84
2019-05-12T02:34:25.639Z,928.86
2019-05-12T02:35:25.196Z,928.88
2019-05-12T02:36:26.039Z,928.89
2019-05-12T02:37:26.219Z,928.94
2019-05-12T02:38:25.331Z,928.97
2019-05-12T02:39:25.133Z,928.95
2019-05-12T02:40:25.509Z,928.91
2019-05-12T02:41:25.994Z,928.96
2019-05-12T02:42:25.057Z,928.90
2019-05-12T02:43:25.027Z,928.92
2019-05-12T02:44:25.069Z,928.91
2019-05-12T02:45:25.733Z,928.92
2019-05-12T02:46:25.776Z,928.87
2019-05-12T02:47:24.947Z,928.86
2019-05-12T02:48:24.921Z,928.89
2019-05-12T02:49:24.905Z,928.85
2019-05-12T02:50:24.889Z,928.81
2019-05-12T02:51:25.130Z,928.82
2019-05-12T02:52:25.302Z,928.80
2019-05-12T02:53:25.188Z,928.76
2019-05-12T02:54:30.875Z,928.72
2019-05-12T02:55:25.647Z,928.73
2019-05-12T02:56:25.799Z,928.74
2019-05-12T02:57:25.746Z,928.70
2019-05-12T02:58:25.478Z,928.75
2019-05-12T02:59:25.431Z,928.78
2019-05-12T03:00:24.672Z,928.72
2019-05-12T03:01:24.671Z,928.72
2019-05-12T03:02:24.812Z,928.79
2019-05-12T03:03:25.309Z,928.73
2019-05-12T03:04:24.893Z,928.71
2019-05-12T03:05:24.950Z,928.66
2019-05-12T03:06:25.299Z,928.66
2019-05-12T03:07:25.457Z,928.70
2019-05-12T03:08:25.707Z,928.70
2019-05-12T03:09:24.613Z,928.75
2019-05-12T03:10:25.251Z,928.75
2019-05-12T03:11:24.897Z,928.73
2019-05-12T03:12:25.643Z,928.79
2019-05-12T03:13:25.433Z,928.80
2019-05-12T03:14:25.283Z,928.86
2019-05-12T03:15:25.215Z,928.83
2019-05-12T03:16:25.673Z,928.85
2019-05-12T03:17:25.305Z,928.85
2019-05-12T03:18:25.230Z,928.84
2019-05-12T03:19:25.272Z,928.87
2019-05-12T03:20:24.386Z,928.86
2019-05-12T03:21:24.684Z,928.91
2019-05-12T03:22:25.226Z,928.91
2019-05-12T03:23:24.926Z,928.90
2019-05-12T03:24:24.946Z,928.90
2019-05-12T03:25:26.125Z,928.99
2019-05-12T03:26:24.853Z,929.00
2019-05-12T03:27:25.591Z,929.04
2019-05-12T03:28:25.507Z,929.10
2019-05-12T03:29:25.042Z,929.08
2019-05-12T03:30:28.913Z,929.06
2019-05-12T03:31:31.033Z,929.03
2019-05-12T03:32:27.487Z,929.07
2019-05-12T03:33:32.961Z,928.98
2019-05-12T03:34:29.280Z,928.97
2019-05-12T03:35:32.419Z,928.96
2019-05-12T03:36:32.026Z,928.96
2019-05-12T03:37:30.706Z,928.98
2019-05-12T03:38:27.243Z,928.99
2019-05-12T03:39:25.096Z,928.97
2019-05-12T03:40:24.902Z,928.95
2019-05-12T03:41:25.072Z,928.94
2019-05-12T03:42:25.079Z,928.95
2019-05-12T03:43:24.488Z,928.91
2019-05-12T03:44:25.171Z,928.86
2019-05-12T03:45:25.126Z,928.89
2019-05-12T03:46:24.891Z,928.92
2019-05-12T03:47:25.042Z,928.93
2019-05-12T03:48:25.217Z,928.91
2019-05-12T03:49:24.538Z,928.92
2019-05-12T03:50:24.580Z,928.90
2019-05-12T03:51:25.051Z,928.87
2019-05-12T03:52:24.584Z,928.88
2019-05-12T03:53:24.743Z,928.94
2019-05-12T03:54:24.417Z,928.93
2019-05-12T03:55:35.537Z,928.92
2019-05-12T03:56:25.867Z,928.88
2019-05-12T03:57:25.274Z,928.87
2019-05-12T03:58:25.636Z,928.85
2019-05-12T03:59:25.551Z,928.82
2019-05-12T04:00:24.675Z,928.80
2019-05-12T04:01:25.492Z,928.83
2019-05-12T04:02:25.075Z,928.81
2019-05-12T04:03:24.645Z,928.85
2019-05-12T04:04:24.460Z,928.84
2019-05-12T04:05:24.336Z,928.79
2019-05-12T04:06:24.601Z,928.79
2019-05-12T04:07:24.297Z,928.75
2019-05-12T04:08:24.650Z,928.71
2019-05-12T04:09:24.566Z,928.67
2019-05-12T04:10:24.753Z,928.67
2019-05-12T04:11:24.983Z,928.67
2019-05-12T04:12:25.488Z,928.60
2019-05-12T04:13:26.186Z,928.61
2019-05-12T04:14:25.249Z,928.59
2019-05-12T04:15:25.628Z,928.58
2019-05-12T04:16:24.675Z,928.56
2019-05-12T04:17:24.408Z,928.60
2019-05-12T04:18:24.685Z,928.57
2019-05-12T04:19:24.910Z,928.61
2019-05-12T04:20:25.418Z,928.63
2019-05-12T04:21:24.324Z,928.63
2019-05-12T04:22:24.889Z,928.64
2019-05-12T04:23:24.749Z,928.65
2019-05-12T04:24:24.954Z,928.67
2019-05-12T04:25:24.945Z,928.63
2019-05-12T04:26:25.323Z,928.65
2019-05-12T04:27:25.098Z,928.63
2019-05-12T04:28:24.544Z,928.62
2019-05-12T04:29:25.046Z,928.67
2019-05-12T04:30:25.006Z,928.65
2019-05-12T04:31:24.921Z,928.62
2019-05-12T04:32:25.014Z,928.62
2019-05-12T04:33:25.714Z,928.63
2019-05-12T04:34:25.076Z,928.61
2019-05-12T04:35:25.141Z,928.59
2019-05-12T04:36:24.813Z,928.57
2019-05-12T04:37:24.966Z,928.64
2019-05-12T04:38:24.894Z,928.62
2019-05-12T04:39:25.303Z,928.60
2019-05-12T04:40:24.788Z,928.62
2019-05-12T04:41:25.703Z,928.57
2019-05-12T04:42:25.122Z,928.57
2019-05-12T04:43:25.473Z,928.62
2019-05-12T04:44:25.138Z,928.61
2019-05-12T04:45:25.254Z,928.62
2019-05-12T04:46:25.269Z,928.63
2019-05-12T04:47:25.262Z,928.61
2019-05-12T04:48:25.440Z,928.60
2019-05-12T04:49:24.993Z,928.64
2019-05-12T04:50:24.569Z,928.60
2019-05-12T04:51:24.959Z,928.58
2019-05-12T04:52:24.870Z,928.54
2019-05-12T04:53:25.142Z,928.59
2019-05-12T04:54:24.711Z,928.49
2019-05-12T04:55:25.478Z,928.47
2019-05-12T04:56:24.981Z,928.52
2019-05-12T04:57:25.209Z,928.51
2019-05-12T04:58:24.973Z,928.50
2019-05-12T04:59:24.611Z,928.52
2019-05-12T05:00:25.382Z,928.55
2019-05-12T05:01:25.051Z,928.50
2019-05-12T05:02:24.984Z,928.41
2019-05-12T05:03:24.739Z,928.45
2019-05-12T05:04:24.441Z,928.45
2019-05-12T05:05:24.662Z,928.39
2019-05-12T05:06:25.058Z,928.33
2019-05-12T05:07:24.412Z,928.33
2019-05-12T05:08:24.372Z,928.26
2019-05-12T05:09:24.581Z,928.23
2019-05-12T05:10:24.738Z,928.24
2019-05-12T05:11:24.723Z,928.18
2019-05-12T05:12:23.926Z,928.15
2019-05-12T05:13:24.365Z,928.13
2019-05-12T05:14:24.532Z,928.05
2019-05-12T05:15:24.713Z,928.06
2019-05-12T05:16:24.645Z,928.15
2019-05-12T05:17:24.213Z,928.15
2019-05-12T05:18:23.862Z,928.20
2019-05-12T05:19:21.750Z,928.26
2019-05-12T05:20:23.810Z,928.31
2019-05-12T05:21:23.804Z,928.26
2019-05-12T05:22:23.647Z,928.20
2019-05-12T05:23:24.020Z,928.25
2019-05-12T05:24:23.508Z,928.19
2019-05-12T05:25:23.632Z,928.16
2019-05-12T05:26:27.667Z,928.15
2019-05-12T05:27:21.581Z,928.16
2019-05-12T05:28:23.598Z,928.12
2019-05-12T05:29:23.889Z,928.20
2019-05-12T05:30:21.521Z,928.17
2019-05-12T05:31:21.499Z,928.23
2019-05-12T05:32:23.273Z,928.23
2019-05-12T05:33:23.589Z,928.27
2019-05-12T05:34:23.465Z,928.27
2019-05-12T05:35:23.713Z,928.29
2019-05-12T05:36:21.390Z,928.26
2019-05-12T05:37:23.795Z,928.27
2019-05-12T05:38:23.568Z,928.22
2019-05-12T05:39:21.312Z,928.16
2019-05-12T05:40:26.009Z,928.11
2019-05-12T05:41:21.294Z,928.14
2019-05-12T05:42:22.035Z,928.10
2019-05-12T05:43:21.247Z,928.09
2019-05-12T05:44:21.223Z,928.02
2019-05-12T05:45:24.201Z,928.02
2019-05-12T05:46:21.185Z,928.00
2019-05-12T05:47:27.143Z,928.02
2019-05-12T05:48:21.146Z,928.01
2019-05-12T05:49:21.113Z,928.10
2019-05-12T05:50:24.820Z,928.19
2019-05-12T05:51:21.075Z,928.21
2019-05-12T05:52:24.517Z,928.26
2019-05-12T05:53:21.039Z,928.29
2019-05-12T05:54:22.752Z,928.30
2019-05-12T05:55:23.206Z,928.33
2019-05-12T05:56:27.162Z,928.36
2019-05-12T05:57:25.707Z,928.38
2019-05-12T05:58:20.933Z,928.36
2019-05-12T05:59:21.945Z,928.37
2019-05-12T06:00:23.805Z,928.37
2019-05-12T06:01:20.840Z,928.38
2019-05-12T06:02:25.475Z,928.44
2019-05-12T06:03:24.534Z,928.44
2019-05-12T06:04:20.781Z,928.44
2019-05-12T06:05:26.274Z,928.43
2019-05-12T06:06:20.763Z,928.42
2019-05-12T06:07:25.524Z,928.37
2019-05-12T06:08:21.592Z,928.37
2019-05-12T06:09:20.701Z,928.37
2019-05-12T06:10:20.675Z,928.37
2019-05-12T06:11:26.624Z,928.29
2019-05-12T06:12:20.633Z,928.31
2019-05-12T06:13:21.206Z,928.25
2019-05-12T06:14:20.585Z,928.28
2019-05-12T06:15:20.546Z,928.32
2019-05-12T06:16:22.961Z,928.30
2019-05-12T06:17:20.519Z,928.32
2019-05-12T06:18:20.481Z,928.31
2019-05-12T06:19:23.487Z,928.34
2019-05-12T06:20:20.448Z,928.28
2019-05-12T06:21:20.443Z,928.31
2019-05-12T06:22:20.416Z,928.34
2019-05-12T06:23:20.398Z,928.35
2019-05-12T06:24:20.394Z,928.38
2019-05-12T06:25:20.439Z,928.41
2019-05-12T06:26:21.118Z,928.45
2019-05-12T06:27:20.981Z,928.41
2019-05-12T06:28:20.296Z,928.44
2019-05-12T06:29:22.004Z,928.42
2019-05-12T06:30:20.247Z,928.34
2019-05-12T06:31:28.259Z,928.37
2019-05-12T06:32:20.202Z,928.31
2019-05-12T06:33:22.678Z,928.31
2019-05-12T06:34:21.036Z,928.34
2019-05-12T06:35:20.148Z,928.34
2019-05-12T06:36:22.267Z,928.30
2019-05-12T06:37:20.096Z,928.33
2019-05-12T06:38:20.059Z,928.41
2019-05-12T06:39:20.890Z,928.41
2019-05-12T06:40:20.019Z,928.45
2019-05-12T06:41:21.406Z,928.41
2019-05-12T06:42:19.973Z,928.37
2019-05-12T06:43:19.957Z,928.37
2019-05-12T06:44:19.952Z,928.40
2019-05-12T06:45:19.927Z,928.41
2019-05-12T06:46:22.701Z,928.35
2019-05-12T06:47:19.890Z,928.36
2019-05-12T06:48:28.445Z,928.32
2019-05-12T06:49:19.843Z,928.42
2019-05-12T06:50:19.827Z,928.36
2019-05-12T06:51:23.788Z,928.37
2019-05-12T06:52:19.791Z,928.32
2019-05-12T06:53:20.256Z,928.36
2019-05-12T06:54:19.738Z,928.27
2019-05-12T06:55:19.722Z,928.28
2019-05-12T06:56:20.023Z,928.28
2019-05-12T06:57:25.394Z,928.19
2019-05-12T06:58:26.025Z,928.20
2019-05-12T06:59:19.632Z,928.19
2019-05-12T07:00:22.264Z,928.15
2019-05-12T07:01:19.817Z,928.17
2019-05-12T07:02:19.553Z,928.14
2019-05-12T07:03:24.717Z,928.17
2019-05-12T07:04:21.342Z,928.23
2019-05-12T07:05:19.486Z,928.25
2019-05-12T07:06:19.974Z,928.18
2019-05-12T07:07:19.462Z,928.21
2019-05-12T07:08:26.363Z,928.23
2019-05-12T07:09:24.936Z,928.22
2019-05-12T07:10:35.486Z,928.18
2019-05-12T07:11:19.365Z,928.19
2019-05-12T07:12:19.358Z,928.12
2019-05-12T07:13:23.213Z,928.16
2019-05-12T07:14:22.808Z,928.15
2019-05-12T07:15:19.318Z,928.15
2019-05-12T07:16:25.168Z,928.16
2019-05-12T07:17:19.252Z,928.14
2019-05-12T07:18:26.012Z,928.14
2019-05-12T07:19:22.773Z,928.11
2019-05-12T07:20:19.185Z,928.10
2019-05-12T07:21:21.115Z,928.12
2019-05-12T07:22:22.504Z,928.16
2019-05-12T07:23:25.853Z,928.18
2019-05-12T07:24:19.103Z,928.22
2019-05-12T07:25:24.598Z,928.19
2019-05-12T07:26:19.708Z,928.17
2019-05-12T07:27:32.224Z,928.22
2019-05-12T07:28:19.020Z,928.27
2019-05-12T07:29:19.004Z,928.23
2019-05-12T07:30:18.979Z,928.31
2019-05-12T07:31:18.963Z,928.29
2019-05-12T07:32:21.669Z,928.34
2019-05-12T07:33:18.916Z,928.29
2019-05-12T07:34:18.894Z,928.30
2019-05-12T07:35:18.873Z,928.33
2019-05-12T07:36:18.835Z,928.34
2019-05-12T07:37:18.835Z,928.36
2019-05-12T07:38:21.540Z,928.35
2019-05-12T07:39:18.792Z,928.40
2019-05-12T07:40:24.059Z,928.35
2019-05-12T07:41:18.741Z,928.32
2019-05-12T07:42:24.998Z,928.36
2019-05-12T07:43:20.532Z,928.30
2019-05-12T07:44:22.010Z,928.27
2019-05-12T07:45:22.331Z,928.31
2019-05-12T07:46:18.635Z,928.32
2019-05-12T07:47:19.216Z,928.30
2019-05-12T07:48:18.592Z,928.31
2019-05-12T07:49:24.227Z,928.33
2019-05-12T07:50:20.713Z,928.32
2019-05-12T07:51:18.515Z,928.35
2019-05-12T07:52:18.510Z,928.39
2019-05-12T07:53:18.492Z,928.41
2019-05-12T07:54:18.449Z,928.43
2019-05-12T07:55:18.427Z,928.42
2019-05-12T07:56:19.684Z,928.39
2019-05-12T07:57:18.405Z,928.42
2019-05-12T07:58:19.369Z,928.43
2019-05-12T07:59:18.360Z,928.40
2019-05-12T08:00:22.830Z,928.47
2019-05-12T08:01:18.299Z,928.46
2019-05-12T08:02:23.166Z,928.41
2019-05-12T08:03:21.268Z,928.44
2019-05-12T08:04:18.236Z,928.45
2019-05-12T08:05:20.091Z,928.48
2019-05-12T08:06:18.210Z,928.49
2019-05-12T08:07:19.935Z,928.53
2019-05-12T08:08:18.176Z,928.56
2019-05-12T08:09:18.154Z,928.55
2019-05-12T08:10:20.097Z,928.49
2019-05-12T08:11:18.105Z,928.51
2019-05-12T08:12:20.989Z,928.51
2019-05-12T08:13:18.766Z,928.50
2019-05-12T08:14:25.939Z,928.50
2019-05-12T08:15:18.023Z,928.55
2019-05-12T08:16:19.489Z,928.51
2019-05-12T08:17:19.650Z,928.60
2019-05-12T08:18:17.940Z,928.56
2019-05-12T08:19:23.689Z,928.63
2019-05-12T08:20:17.916Z,928.63
2019-05-12T08:21:17.896Z,928.70
2019-05-12T08:22:18.825Z,928.68
2019-05-12T08:23:17.852Z,928.73
2019-05-12T08:24:17.826Z,928.71
2019-05-12T08:25:18.778Z,928.70
2019-05-12T08:26:18.767Z,928.75
2019-05-12T08:27:17.775Z,928.78
2019-05-12T08:28:19.246Z,928.75
2019-05-12T08:29:21.519Z,928.72
2019-05-12T08:30:17.697Z,928.80
2019-05-12T08:31:17.688Z,928.80
2019-05-12T08:32:20.119Z,928.80
2019-05-12T08:33:17.638Z,928.84
2019-05-12T08:34:17.612Z,928.88
2019-05-12T08:35:25.472Z,928.91
2019-05-12T08:36:17.578Z,928.92
2019-05-12T08:37:17.548Z,928.91
2019-05-12T08:38:17.517Z,928.84
2019-05-12T08:39:22.747Z,928.89
2019-05-12T08:40:17.472Z,928.96
2019-05-12T08:41:17.449Z,928.98
2019-05-12T08:42:17.444Z,928.98
2019-05-12T08:43:17.426Z,928.98
2019-05-12T08:44:17.730Z,929.00
2019-05-12T08:45:25.074Z,929.01
2019-05-12T08:46:17.362Z,929.06
2019-05-12T08:47:17.343Z,929.02
2019-05-12T08:48:21.625Z,929.06
2019-05-12T08:49:17.290Z,929.06
2019-05-12T08:50:17.271Z,929.08
2019-05-12T08:51:20.125Z,929.05
2019-05-12T08:52:17.226Z,929.08
2019-05-12T08:53:21.020Z,929.08
2019-05-12T08:54:17.188Z,929.17
2019-05-12T08:55:25.147Z,929.18
2019-05-12T08:56:19.473Z,929.20
2019-05-12T08:57:17.120Z,929.26
2019-05-12T08:58:30.095Z,929.28
2019-05-12T08:59:18.516Z,929.26
2019-05-12T09:00:17.062Z,929.27
2019-05-12T09:01:20.472Z,929.22
2019-05-12T09:02:17.016Z,929.24
2019-05-12T09:03:20.369Z,929.23
2019-05-12T09:04:18.366Z,929.24
2019-05-12T09:05:16.928Z,929.27
2019-05-12T09:06:19.760Z,929.32
2019-05-12T09:07:17.081Z,929.32
2019-05-12T09:08:16.872Z,929.33
2019-05-12T09:09:16.843Z,929.30
2019-05-12T09:10:16.844Z,929.27
2019-05-12T09:11:16.824Z,929.32
2019-05-12T09:12:16.804Z,929.34
2019-05-12T09:13:16.785Z,929.36
2019-05-12T09:14:16.753Z,929.37
2019-05-12T09:15:16.743Z,929.36
2019-05-12T09:16:16.711Z,929.39
2019-05-12T09:17:16.688Z,929.40
2019-05-12T09:18:18.852Z,929.47
2019-05-12T09:19:23.551Z,929.47
2019-05-12T09:20:16.614Z,929.51
2019-05-12T09:21:16.591Z,929.55
2019-05-12T09:22:20.707Z,929.55
2019-05-12T09:23:16.546Z,929.55
2019-05-12T09:24:21.836Z,929.62
2019-05-12T09:25:16.521Z,929.64
2019-05-12T09:26:22.117Z,929.64
2019-05-12T09:27:16.475Z,929.64
2019-05-12T09:28:16.460Z,929.68
2019-05-12T09:29:16.430Z,929.68
2019-05-12T09:30:16.413Z,929.69
2019-05-12T09:31:19.534Z,929.70
2019-05-12T09:32:16.382Z,929.69
2019-05-12T09:33:16.363Z,929.70
2019-05-12T09:34:16.622Z,929.69
2019-05-12T09:35:16.300Z,929.69
2019-05-12T09:36:19.661Z,929.61
2019-05-12T09:37:16.260Z,929.65
2019-05-12T09:38:26.272Z,929.64
2019-05-12T09:39:16.224Z,929.67
2019-05-12T09:40:20.570Z,929.65
2019-05-12T09:41:16.184Z,929.63
2019-05-12T09:42:19.352Z,929.62
2019-05-12T09:43:16.135Z,929.61
2019-05-12T09:44:20.334Z,929.61
2019-05-12T09:45:16.084Z,929.66
2019-05-12T09:46:16.066Z,929.59
2019-05-12T09:47:23.221Z,929.63
2019-05-12T09:48:16.032Z,929.70
2019-05-12T09:49:16.012Z,929.64
2019-05-12T09:50:20.097Z,929.62
2019-05-12T09:51:17.266Z,929.63
2019-05-12T09:52:22.772Z,929.60
2019-05-12T09:53:15.929Z,929.60
2019-05-12T09:54:15.879Z,929.61
2019-05-12T09:55:15.884Z,929.62
2019-05-12T09:56:15.853Z,929.63
2019-05-12T09:57:15.834Z,929.64
2019-05-12T09:58:23.258Z,929.62
2019-05-12T09:59:21.314Z,929.69
2019-05-12T10:00:15.775Z,929.68
2019-05-12T10:01:15.746Z,929.68
2019-05-12T10:02:20.495Z,929.69
2019-05-12T10:03:15.710Z,929.69
2019-05-12T10:04:19.467Z,929.70
2019-05-12T10:05:15.667Z,929.69
2019-05-12T10:06:18.056Z,929.74
2019-05-12T10:07:15.624Z,929.80
2019-05-12T10:08:15.608Z,929.78
2019-05-12T10:09:19.791Z,929.80
2019-05-12T10:10:15.560Z,929.81
2019-05-12T10:11:19.485Z,929.75
2019-05-12T10:12:15.532Z,929.80
2019-05-12T10:13:20.356Z,929.78
2019-05-12T10:14:15.466Z,929.77
2019-05-12T10:15:18.720Z,929.81
2019-05-12T10:16:15.438Z,929.79
2019-05-12T10:17:20.323Z,929.84
2019-05-12T10:18:15.395Z,929.92
2019-05-12T10:19:15.374Z,929.93
2019-05-12T10:20:15.358Z,929.97
2019-05-12T10:21:17.418Z,929.94
2019-05-12T10:22:15.303Z,929.97
2019-05-12T10:23:18.884Z,929.93
2019-05-12T10:24:15.257Z,929.88
2019-05-12T10:25:15.236Z,929.87
2019-05-12T10:26:15.235Z,929.94
2019-05-12T10:27:15.215Z,930.01
2019-05-12T10:28:16.259Z,930.06
2019-05-12T10:29:20.460Z,930.03
2019-05-12T10:30:17.237Z,930.03
2019-05-12T10:31:18.331Z,930.04
2019-05-12T10:32:15.122Z,930.03
2019-05-12T10:33:15.086Z,930.02
2019-05-12T10:34:15.082Z,929.95
2019-05-12T10:35:20.823Z,929.96
2019-05-12T10:36:15.040Z,929.99
2019-05-12T10:37:19.351Z,929.98
2019-05-12T10:38:15.004Z,929.96
2019-05-12T10:39:14.967Z,929.96
2019-05-12T10:40:14.967Z,929.98
2019-05-12T10:41:14.932Z,929.98
2019-05-12T10:42:14.923Z,929.97
2019-05-12T10:43:14.933Z,930.03
2019-05-12T10:44:14.885Z,930.07
2019-05-12T10:45:17.133Z,930.16
2019-05-12T10:46:18.338Z,930.21
2019-05-12T10:47:14.832Z,930.22
2019-05-12T10:48:14.811Z,930.16
2019-05-12T10:49:14.794Z,930.09
2019-05-12T10:50:14.771Z,930.10
2019-05-12T10:51:14.749Z,930.06
2019-05-12T10:52:14.734Z,930.10
2019-05-12T10:53:15.585Z,930.13
2019-05-12T10:54:15.722Z,930.19
2019-05-12T10:55:14.681Z,930.09
2019-05-12T10:56:14.660Z,930.16
2019-05-12T10:57:14.660Z,930.04
2019-05-12T10:58:14.763Z,930.08
2019-05-12T10:59:27.139Z,930.05
2019-05-12T11:00:19.790Z,930.03
2019-05-12T11:01:14.547Z,930.04
2019-05-12T11:02:14.554Z,930.09
2019-05-12T11:03:15.464Z,930.10
2019-05-12T11:04:14.519Z,930.22
2019-05-12T11:05:21.179Z,930.17
2019-05-12T11:06:14.480Z,930.24
2019-05-12T11:07:14.465Z,930.24
2019-05-12T11:08:14.573Z,930.15
2019-05-12T11:09:14.405Z,930.32
2019-05-12T11:10:19.693Z,930.46
2019-05-12T11:11:14.382Z,930.44
2019-05-12T11:12:19.185Z,930.51
2019-05-12T11:13:17.585Z,930.48
2019-05-12T11:14:14.400Z,930.48
2019-05-12T11:15:14.299Z,930.46
2019-05-12T11:16:16.748Z,930.37
2019-05-12T11:17:14.280Z,930.38
2019-05-12T11:18:14.264Z,930.32
2019-05-12T11:19:14.246Z,930.38
2019-05-12T11:20:14.249Z,930.42
2019-05-12T11:21:14.213Z,930.40
2019-05-12T11:22:14.200Z,930.40
2019-05-12T11:23:14.181Z,930.32
2019-05-12T11:24:14.163Z,930.31
2019-05-12T11:25:14.516Z,930.32
2019-05-12T11:26:14.282Z,930.28
2019-05-12T11:27:14.113Z,930.34
2019-05-12T11:28:14.229Z,930.37
2019-05-12T11:29:14.228Z,930.39
2019-05-12T11:30:14.037Z,930.43
2019-05-12T11:31:14.026Z,930.40
2019-05-12T11:32:17.413Z,930.33
2019-05-12T11:33:13.987Z,930.36
2019-05-12T11:34:13.988Z,930.39
2019-05-12T11:35:14.417Z,930.54
2019-05-12T11:36:13.954Z,930.73
2019-05-12T11:37:14.031Z,930.72
2019-05-12T11:38:13.915Z,930.84
2019-05-12T11:39:14.281Z,930.95
2019-05-12T11:40:13.859Z,930.91
2019-05-12T11:41:16.122Z,931.02
2019-05-12T11:42:13.846Z,931.04
2019-05-12T11:43:14.544Z,930.98
2019-05-12T11:44:13.811Z,930.64
2019-05-12T11:45:13.796Z,930.79
2019-05-12T11:46:13.789Z,930.58
2019-05-12T11:47:14.703Z,930.61
2019-05-12T11:48:14.416Z,930.56
2019-05-12T11:49:13.967Z,930.59
2019-05-12T11:50:13.716Z,930.47
2019-05-12T11:51:14.399Z,930.43
2019-05-12T11:52:18.418Z,930.44
2019-05-12T11:53:13.914Z,930.35
2019-05-12T11:54:13.879Z,930.37
2019-05-12T11:55:13.614Z,930.35
2019-05-12T11:56:13.931Z,930.34
2019-05-12T11:57:13.582Z,930.31
2019-05-12T11:58:13.566Z,930.33
2019-05-12T11:59:13.886Z,930.39
2019-05-12T12:00:13.774Z,930.45
2019-05-12T12:01:13.601Z,930.48
2019-05-12T12:02:13.570Z,930.62
2019-05-12T12:03:17.974Z,930.68
2019-05-12T12:04:14.340Z,930.88
2019-05-12T12:05:13.873Z,930.85
2019-05-12T12:06:13.543Z,931.03
2019-05-12T12:07:13.426Z,931.04
2019-05-12T12:08:14.419Z,931.30
2019-05-12T12:09:15.259Z,931.49
2019-05-12T12:10:14.205Z,931.49
2019-05-12T12:11:18.166Z,931.43
2019-05-12T12:12:13.593Z,931.47
2019-05-12T12:13:14.087Z,931.12
2019-05-12T12:14:14.314Z,931.16
2019-05-12T12:15:13.766Z,931.08
2019-05-12T12:16:14.110Z,931.12
2019-05-12T12:17:13.678Z,931.21
2019-05-12T12:18:15.308Z,931.09
2019-05-12T12:19:13.238Z,931.03
2019-05-12T12:20:21.744Z,931.08
2019-05-12T12:21:14.233Z,931.21
2019-05-12T12:22:14.666Z,931.28
2019-05-12T12:23:14.102Z,931.29
2019-05-12T12:24:13.314Z,931.11
2019-05-12T12:25:15.518Z,931.09
2019-05-12T12:26:13.344Z,931.10
2019-05-12T12:27:14.195Z,931.17
2019-05-12T12:28:13.697Z,931.27